Portada
METAR-TAF:

METAR-TAF

Aeropuertos :

Santa María de Leuca

Castrignano del Capo, Italia

latitud: 39-49N, longitud: 018-21E, altitud: 104 m

Observación

El informe se hizo hace 1 hora y 4 minutos, a las 11:55 UTC
Viento 19 kt del norte-noreste
Temperatura 16°C
Humedad 48%
Presión 1008 hPa
Visibilidad 10 km o más
Escasas nubes a una altura de 2200 ft

METAR: LIBY 041155Z 02019KT 9999 FEW022 16/05 Q1008 RMK SCT SCT090 QUK 5 QUL 3 N VIS MAR 15 KM VIS MIN 9999

Hora: 14:59 (12:59 UTC)


TAF: falta

Observaciones y pronósticos meteorológicos de más de 4000 aeropuertos (mensajes METAR y TAF).

Los puntos amarillos y rojos representan las estaciones disponibles.

Ponga el ratón en el punto deseado para ver el nombre de la estación.

Haga clic para ver las observaciones y los pronósticos meteorológicos.

Para cambiar el mapa : haga clic en los botones verdes con una cruz de color negro para hacer un zoom, en el botón verde con un guión para alejar o en las flechas verdes para mapas adyacentes.


METAR-TAF: